sensor_id;sensor_type;location;lat;lon;timestamp;P1;durP1;ratioP1;P2;durP2;ratioP2
72413;SDS011;60995;52.154;4.498;2023-03-12T00:01:21;9.70;;;3.28;;
72413;SDS011;60995;52.154;4.498;2023-03-12T00:03:40;13.48;;;3.15;;
72413;SDS011;60995;52.154;4.498;2023-03-12T00:05:56;13.07;;;3.05;;
72413;SDS011;60995;52.154;4.498;2023-03-12T00:08:13;10.38;;;3.63;;
72413;SDS011;60995;52.154;4.498;2023-03-12T00:10:29;11.40;;;3.53;;
72413;SDS011;60995;52.154;4.498;2023-03-12T00:12:45;11.05;;;3.67;;
72413;SDS011;60995;52.154;4.498;2023-03-12T00:15:02;11.80;;;3.83;;
72413;SDS011;60995;52.154;4.498;2023-03-12T00:17:19;8.77;;;3.75;;
72413;SDS011;60995;52.154;4.498;2023-03-12T00:19:35;10.55;;;4.05;;
72413;SDS011;60995;52.154;4.498;2023-03-12T00:21:51;12.45;;;4.30;;
72413;SDS011;60995;52.154;4.498;2023-03-12T00:24:08;11.40;;;4.38;;
72413;SDS011;60995;52.154;4.498;2023-03-12T00:26:25;11.07;;;4.03;;
72413;SDS011;60995;52.154;4.498;2023-03-12T00:28:41;7.20;;;3.85;;
72413;SDS011;60995;52.154;4.498;2023-03-12T00:30:57;9.95;;;4.28;;
72413;SDS011;60995;52.154;4.498;2023-03-12T00:33:14;14.15;;;5.07;;
72413;SDS011;60995;52.154;4.498;2023-03-12T00:35:30;14.95;;;5.00;;
72413;SDS011;60995;52.154;4.498;2023-03-12T00:37:47;10.70;;;4.85;;
72413;SDS011;60995;52.154;4.498;2023-03-12T00:40:04;11.85;;;4.55;;
72413;SDS011;60995;52.154;4.498;2023-03-12T00:42:23;15.00;;;4.82;;
72413;SDS011;60995;52.154;4.498;2023-03-12T00:44:43;15.70;;;5.18;;
72413;SDS011;60995;52.154;4.498;2023-03-12T00:47:00;9.65;;;4.80;;
72413;SDS011;60995;52.154;4.498;2023-03-12T00:49:16;11.00;;;5.75;;
72413;SDS011;60995;52.154;4.498;2023-03-12T00:51:33;16.45;;;5.15;;
72413;SDS011;60995;52.154;4.498;2023-03-12T00:53:49;13.27;;;5.05;;
72413;SDS011;60995;52.154;4.498;2023-03-12T00:56:06;12.77;;;4.97;;
72413;SDS011;60995;52.154;4.498;2023-03-12T00:58:23;13.57;;;5.35;;
72413;SDS011;60995;52.154;4.498;2023-03-12T01:00:39;13.20;;;5.40;;
72413;SDS011;60995;52.154;4.498;2023-03-12T01:02:56;14.68;;;6.05;;
72413;SDS011;60995;52.154;4.498;2023-03-12T01:05:13;12.88;;;5.43;;
72413;SDS011;60995;52.154;4.498;2023-03-12T01:07:30;11.40;;;4.80;;
72413;SDS011;60995;52.154;4.498;2023-03-12T01:09:46;11.57;;;5.00;;
72413;SDS011;60995;52.154;4.498;2023-03-12T01:12:02;13.38;;;5.40;;
72413;SDS011;60995;52.154;4.498;2023-03-12T01:14:19;14.48;;;5.20;;
72413;SDS011;60995;52.154;4.498;2023-03-12T01:16:35;15.88;;;5.35;;
72413;SDS011;60995;52.154;4.498;2023-03-12T01:18:52;13.23;;;5.35;;
72413;SDS011;60995;52.154;4.498;2023-03-12T01:21:09;11.13;;;5.30;;
72413;SDS011;60995;52.154;4.498;2023-03-12T01:23:26;14.30;;;5.13;;
72413;SDS011;60995;52.154;4.498;2023-03-12T01:25:43;12.48;;;5.45;;
72413;SDS011;60995;52.154;4.498;2023-03-12T01:27:59;10.10;;;5.15;;
72413;SDS011;60995;52.154;4.498;2023-03-12T01:30:18;10.93;;;4.97;;
72413;SDS011;60995;52.154;4.498;2023-03-12T01:32:35;16.02;;;5.40;;
72413;SDS011;60995;52.154;4.498;2023-03-12T01:34:54;13.77;;;5.22;;
72413;SDS011;60995;52.154;4.498;2023-03-12T01:37:13;16.75;;;5.38;;
72413;SDS011;60995;52.154;4.498;2023-03-12T01:39:33;10.80;;;5.13;;
72413;SDS011;60995;52.154;4.498;2023-03-12T01:41:50;12.05;;;5.00;;
72413;SDS011;60995;52.154;4.498;2023-03-12T01:44:06;14.60;;;5.60;;
72413;SDS011;60995;52.154;4.498;2023-03-12T01:46:33;10.30;;;4.90;;
72413;SDS011;60995;52.154;4.498;2023-03-12T01:51:26;14.00;;;5.88;;
72413;SDS011;60995;52.154;4.498;2023-03-12T01:53:59;11.38;;;5.03;;
72413;SDS011;60995;52.154;4.498;2023-03-12T01:56:22;15.00;;;4.93;;
72413;SDS011;60995;52.154;4.498;2023-03-12T01:58:49;15.02;;;4.82;;
72413;SDS011;60995;52.154;4.498;2023-03-12T02:01:10;14.00;;;5.07;;
72413;SDS011;60995;52.154;4.498;2023-03-12T02:03:29;14.00;;;5.03;;
72413;SDS011;60995;52.154;4.498;2023-03-12T02:05:50;12.07;;;4.82;;
72413;SDS011;60995;52.154;4.498;2023-03-12T02:08:15;13.82;;;4.63;;
72413;SDS011;60995;52.154;4.498;2023-03-12T02:10:32;13.60;;;4.97;;
72413;SDS011;60995;52.154;4.498;2023-03-12T02:12:49;10.25;;;4.28;;
72413;SDS011;60995;52.154;4.498;2023-03-12T02:15:06;12.65;;;4.40;;
72413;SDS011;60995;52.154;4.498;2023-03-12T02:17:24;10.98;;;4.13;;
72413;SDS011;60995;52.154;4.498;2023-03-12T02:20:26;12.27;;;4.70;;
72413;SDS011;60995;52.154;4.498;2023-03-12T02:22:38;11.48;;;4.22;;
72413;SDS011;60995;52.154;4.498;2023-03-12T02:25:03;12.63;;;4.30;;
72413;SDS011;60995;52.154;4.498;2023-03-12T02:27:45;10.20;;;4.20;;
72413;SDS011;60995;52.154;4.498;2023-03-12T02:30:03;10.75;;;4.18;;
72413;SDS011;60995;52.154;4.498;2023-03-12T02:32:28;11.32;;;4.10;;
72413;SDS011;60995;52.154;4.498;2023-03-12T02:34:55;9.07;;;4.10;;
72413;SDS011;60995;52.154;4.498;2023-03-12T02:37:12;15.25;;;4.75;;
72413;SDS011;60995;52.154;4.498;2023-03-12T02:39:29;11.10;;;3.85;;
72413;SDS011;60995;52.154;4.498;2023-03-12T02:41:53;10.90;;;4.32;;
72413;SDS011;60995;52.154;4.498;2023-03-12T02:44:17;11.05;;;4.10;;
72413;SDS011;60995;52.154;4.498;2023-03-12T02:46:39;17.38;;;4.65;;
72413;SDS011;60995;52.154;4.498;2023-03-12T02:49:00;10.98;;;3.88;;
72413;SDS011;60995;52.154;4.498;2023-03-12T02:51:20;11.55;;;3.92;;
72413;SDS011;60995;52.154;4.498;2023-03-12T02:53:36;10.35;;;4.10;;
72413;SDS011;60995;52.154;4.498;2023-03-12T02:55:53;16.15;;;4.80;;
72413;SDS011;60995;52.154;4.498;2023-03-12T02:58:10;15.10;;;4.18;;
72413;SDS011;60995;52.154;4.498;2023-03-12T03:00:26;12.27;;;4.00;;
72413;SDS011;60995;52.154;4.498;2023-03-12T03:02:43;12.60;;;4.50;;
72413;SDS011;60995;52.154;4.498;2023-03-12T03:04:59;10.02;;;4.30;;
72413;SDS011;60995;52.154;4.498;2023-03-12T03:07:15;11.77;;;4.35;;
72413;SDS011;60995;52.154;4.498;2023-03-12T03:09:32;10.63;;;4.18;;
72413;SDS011;60995;52.154;4.498;2023-03-12T03:11:49;13.43;;;4.47;;
72413;SDS011;60995;52.154;4.498;2023-03-12T03:14:06;14.10;;;4.00;;
72413;SDS011;60995;52.154;4.498;2023-03-12T03:16:22;15.45;;;4.38;;
72413;SDS011;60995;52.154;4.498;2023-03-12T03:18:39;11.73;;;4.45;;
72413;SDS011;60995;52.154;4.498;2023-03-12T03:21:00;13.25;;;3.97;;
72413;SDS011;60995;52.154;4.498;2023-03-12T03:23:20;13.90;;;3.70;;
72413;SDS011;60995;52.154;4.498;2023-03-12T03:25:36;13.88;;;3.90;;
72413;SDS011;60995;52.154;4.498;2023-03-12T03:27:52;10.57;;;3.83;;
72413;SDS011;60995;52.154;4.498;2023-03-12T03:30:09;11.63;;;3.88;;
72413;SDS011;60995;52.154;4.498;2023-03-12T03:32:26;13.00;;;3.83;;
72413;SDS011;60995;52.154;4.498;2023-03-12T03:34:44;16.98;;;3.97;;
72413;SDS011;60995;52.154;4.498;2023-03-12T03:37:00;14.82;;;4.45;;
72413;SDS011;60995;52.154;4.498;2023-03-12T03:39:17;11.73;;;3.97;;
72413;SDS011;60995;52.154;4.498;2023-03-12T03:41:33;9.15;;;3.17;;
72413;SDS011;60995;52.154;4.498;2023-03-12T03:43:50;9.45;;;3.70;;
72413;SDS011;60995;52.154;4.498;2023-03-12T03:46:06;13.05;;;3.20;;
72413;SDS011;60995;52.154;4.498;2023-03-12T03:48:22;9.52;;;3.40;;
72413;SDS011;60995;52.154;4.498;2023-03-12T03:50:39;10.20;;;3.30;;
72413;SDS011;60995;52.154;4.498;2023-03-12T03:52:56;11.18;;;3.58;;
72413;SDS011;60995;52.154;4.498;2023-03-12T03:55:13;10.75;;;3.40;;
72413;SDS011;60995;52.154;4.498;2023-03-12T03:57:29;12.40;;;4.07;;
72413;SDS011;60995;52.154;4.498;2023-03-12T03:59:46;9.45;;;3.50;;
72413;SDS011;60995;52.154;4.498;2023-03-12T04:02:02;12.95;;;4.30;;
72413;SDS011;60995;52.154;4.498;2023-03-12T04:04:23;9.98;;;3.70;;
72413;SDS011;60995;52.154;4.498;2023-03-12T04:06:39;10.52;;;3.97;;
72413;SDS011;60995;52.154;4.498;2023-03-12T04:08:55;11.35;;;3.75;;
72413;SDS011;60995;52.154;4.498;2023-03-12T04:11:14;12.88;;;4.00;;
72413;SDS011;60995;52.154;4.498;2023-03-12T04:13:35;11.07;;;3.42;;
72413;SDS011;60995;52.154;4.498;2023-03-12T04:15:55;11.00;;;3.90;;
72413;SDS011;60995;52.154;4.498;2023-03-12T04:18:11;8.05;;;3.45;;
72413;SDS011;60995;52.154;4.498;2023-03-12T04:20:28;14.75;;;3.88;;
72413;SDS011;60995;52.154;4.498;2023-03-12T04:22:44;10.93;;;3.90;;
72413;SDS011;60995;52.154;4.498;2023-03-12T04:25:00;8.88;;;3.92;;
72413;SDS011;60995;52.154;4.498;2023-03-12T04:27:17;14.18;;;4.07;;
72413;SDS011;60995;52.154;4.498;2023-03-12T04:29:33;17.48;;;3.97;;
72413;SDS011;60995;52.154;4.498;2023-03-12T04:31:50;11.20;;;3.47;;
72413;SDS011;60995;52.154;4.498;2023-03-12T04:34:06;10.68;;;4.00;;
72413;SDS011;60995;52.154;4.498;2023-03-12T04:36:24;10.13;;;3.67;;
72413;SDS011;60995;52.154;4.498;2023-03-12T04:38:41;12.63;;;4.15;;
72413;SDS011;60995;52.154;4.498;2023-03-12T04:40:58;16.48;;;4.25;;
72413;SDS011;60995;52.154;4.498;2023-03-12T04:43:16;13.10;;;4.10;;
72413;SDS011;60995;52.154;4.498;2023-03-12T04:45:36;14.88;;;5.20;;
72413;SDS011;60995;52.154;4.498;2023-03-12T04:47:53;10.68;;;4.85;;
72413;SDS011;60995;52.154;4.498;2023-03-12T04:50:11;16.75;;;4.93;;
72413;SDS011;60995;52.154;4.498;2023-03-12T04:52:27;11.20;;;4.97;;
72413;SDS011;60995;52.154;4.498;2023-03-12T04:54:43;14.77;;;5.55;;
72413;SDS011;60995;52.154;4.498;2023-03-12T04:57:00;17.17;;;5.95;;
72413;SDS011;60995;52.154;4.498;2023-03-12T04:59:16;13.52;;;5.78;;
72413;SDS011;60995;52.154;4.498;2023-03-12T05:01:33;16.92;;;6.82;;
72413;SDS011;60995;52.154;4.498;2023-03-12T05:03:52;12.23;;;6.72;;
72413;SDS011;60995;52.154;4.498;2023-03-12T05:06:08;20.98;;;7.30;;
72413;SDS011;60995;52.154;4.498;2023-03-12T05:08:25;18.10;;;7.40;;
72413;SDS011;60995;52.154;4.498;2023-03-12T05:10:41;17.77;;;7.28;;
72413;SDS011;60995;52.154;4.498;2023-03-12T05:13:00;16.98;;;6.97;;
72413;SDS011;60995;52.154;4.498;2023-03-12T05:15:16;21.50;;;8.05;;
72413;SDS011;60995;52.154;4.498;2023-03-12T05:17:32;18.83;;;7.40;;
72413;SDS011;60995;52.154;4.498;2023-03-12T05:19:49;16.77;;;7.85;;
72413;SDS011;60995;52.154;4.498;2023-03-12T05:22:05;16.52;;;8.60;;
72413;SDS011;60995;52.154;4.498;2023-03-12T05:24:21;17.70;;;8.65;;
72413;SDS011;60995;52.154;4.498;2023-03-12T05:26:38;17.77;;;9.48;;
72413;SDS011;60995;52.154;4.498;2023-03-12T05:28:54;17.90;;;8.75;;
72413;SDS011;60995;52.154;4.498;2023-03-12T05:31:11;19.10;;;10.38;;
72413;SDS011;60995;52.154;4.498;2023-03-12T05:33:50;23.13;;;10.93;;
72413;SDS011;60995;52.154;4.498;2023-03-12T05:36:05;22.60;;;11.57;;
72413;SDS011;60995;52.154;4.498;2023-03-12T05:38:23;28.00;;;14.45;;
72413;SDS011;60995;52.154;4.498;2023-03-12T05:40:39;30.15;;;15.15;;
72413;SDS011;60995;52.154;4.498;2023-03-12T05:42:56;30.40;;;14.25;;
72413;SDS011;60995;52.154;4.498;2023-03-12T05:45:12;30.80;;;14.68;;
72413;SDS011;60995;52.154;4.498;2023-03-12T05:47:29;19.98;;;11.52;;
72413;SDS011;60995;52.154;4.498;2023-03-12T05:49:45;27.98;;;13.05;;
72413;SDS011;60995;52.154;4.498;2023-03-12T05:52:02;30.52;;;16.10;;
72413;SDS011;60995;52.154;4.498;2023-03-12T05:54:18;27.13;;;14.55;;
72413;SDS011;60995;52.154;4.498;2023-03-12T05:56:35;39.63;;;16.38;;
72413;SDS011;60995;52.154;4.498;2023-03-12T05:58:52;41.15;;;17.83;;
72413;SDS011;60995;52.154;4.498;2023-03-12T06:01:16;33.78;;;17.92;;
72413;SDS011;60995;52.154;4.498;2023-03-12T06:03:38;36.85;;;18.83;;
72413;SDS011;60995;52.154;4.498;2023-03-12T06:05:54;38.72;;;19.05;;
72413;SDS011;60995;52.154;4.498;2023-03-12T06:08:11;60.33;;;20.65;;
72413;SDS011;60995;52.154;4.498;2023-03-12T06:10:28;39.75;;;21.13;;
72413;SDS011;60995;52.154;4.498;2023-03-12T06:12:45;38.97;;;20.60;;
72413;SDS011;60995;52.154;4.498;2023-03-12T06:15:01;37.42;;;19.98;;
72413;SDS011;60995;52.154;4.498;2023-03-12T06:17:18;41.30;;;21.60;;
72413;SDS011;60995;52.154;4.498;2023-03-12T06:19:34;39.22;;;20.63;;
72413;SDS011;60995;52.154;4.498;2023-03-12T06:21:53;40.75;;;21.63;;
72413;SDS011;60995;52.154;4.498;2023-03-12T06:24:09;37.90;;;20.15;;
72413;SDS011;60995;52.154;4.498;2023-03-12T06:26:25;29.55;;;16.50;;
72413;SDS011;60995;52.154;4.498;2023-03-12T06:28:43;43.42;;;20.35;;
72413;SDS011;60995;52.154;4.498;2023-03-12T06:31:01;42.45;;;22.20;;
72413;SDS011;60995;52.154;4.498;2023-03-12T06:33:19;37.00;;;20.08;;
72413;SDS011;60995;52.154;4.498;2023-03-12T06:35:35;37.97;;;21.80;;
72413;SDS011;60995;52.154;4.498;2023-03-12T06:37:52;37.53;;;20.58;;
72413;SDS011;60995;52.154;4.498;2023-03-12T06:40:08;34.08;;;20.95;;
72413;SDS011;60995;52.154;4.498;2023-03-12T06:42:26;32.80;;;20.40;;
72413;SDS011;60995;52.154;4.498;2023-03-12T06:44:42;32.38;;;18.90;;
72413;SDS011;60995;52.154;4.498;2023-03-12T06:46:58;33.90;;;20.58;;
72413;SDS011;60995;52.154;4.498;2023-03-12T06:49:15;123.25;;;25.30;;
72413;SDS011;60995;52.154;4.498;2023-03-12T06:51:32;34.75;;;21.05;;
72413;SDS011;60995;52.154;4.498;2023-03-12T06:53:49;34.17;;;19.27;;
72413;SDS011;60995;52.154;4.498;2023-03-12T06:56:05;30.70;;;19.50;;
72413;SDS011;60995;52.154;4.498;2023-03-12T06:58:22;35.10;;;19.30;;
72413;SDS011;60995;52.154;4.498;2023-03-12T07:00:39;29.38;;;17.80;;
72413;SDS011;60995;52.154;4.498;2023-03-12T07:02:56;36.42;;;20.15;;
72413;SDS011;60995;52.154;4.498;2023-03-12T07:05:12;29.95;;;19.83;;
72413;SDS011;60995;52.154;4.498;2023-03-12T07:07:28;34.60;;;20.38;;
72413;SDS011;60995;52.154;4.498;2023-03-12T07:09:46;118.32;;;23.27;;
72413;SDS011;60995;52.154;4.498;2023-03-12T07:12:02;40.70;;;22.85;;
72413;SDS011;60995;52.154;4.498;2023-03-12T07:14:19;40.08;;;22.67;;
72413;SDS011;60995;52.154;4.498;2023-03-12T07:16:36;42.08;;;24.13;;
72413;SDS011;60995;52.154;4.498;2023-03-12T07:18:52;583.28;;;47.38;;
72413;SDS011;60995;52.154;4.498;2023-03-12T07:21:08;42.72;;;23.88;;
72413;SDS011;60995;52.154;4.498;2023-03-12T07:23:25;47.88;;;26.75;;
72413;SDS011;60995;52.154;4.498;2023-03-12T07:25:42;49.67;;;29.58;;
72413;SDS011;60995;52.154;4.498;2023-03-12T07:27:59;57.35;;;30.52;;
72413;SDS011;60995;52.154;4.498;2023-03-12T07:30:16;58.35;;;33.35;;
72413;SDS011;60995;52.154;4.498;2023-03-12T07:32:34;67.72;;;33.55;;
72413;SDS011;60995;52.154;4.498;2023-03-12T07:34:51;58.45;;;32.55;;
72413;SDS011;60995;52.154;4.498;2023-03-12T07:37:08;70.60;;;36.60;;
72413;SDS011;60995;52.154;4.498;2023-03-12T07:39:25;67.82;;;34.83;;
72413;SDS011;60995;52.154;4.498;2023-03-12T07:41:41;63.20;;;34.05;;
72413;SDS011;60995;52.154;4.498;2023-03-12T07:43:57;71.70;;;37.97;;
72413;SDS011;60995;52.154;4.498;2023-03-12T07:46:14;67.93;;;37.60;;
72413;SDS011;60995;52.154;4.498;2023-03-12T07:48:30;70.35;;;36.95;;
72413;SDS011;60995;52.154;4.498;2023-03-12T07:50:47;76.47;;;37.30;;
72413;SDS011;60995;52.154;4.498;2023-03-12T07:53:03;73.72;;;40.05;;
72413;SDS011;60995;52.154;4.498;2023-03-12T07:55:21;73.72;;;39.08;;
72413;SDS011;60995;52.154;4.498;2023-03-12T07:57:37;77.70;;;38.38;;
72413;SDS011;60995;52.154;4.498;2023-03-12T07:59:54;74.47;;;39.25;;
72413;SDS011;60995;52.154;4.498;2023-03-12T08:02:10;73.68;;;38.42;;
72413;SDS011;60995;52.154;4.498;2023-03-12T08:04:27;71.10;;;39.53;;
72413;SDS011;60995;52.154;4.498;2023-03-12T08:06:44;80.13;;;39.53;;
72413;SDS011;60995;52.154;4.498;2023-03-12T08:09:03;168.25;;;45.00;;
72413;SDS011;60995;52.154;4.498;2023-03-12T08:11:20;82.80;;;41.05;;
72413;SDS011;60995;52.154;4.498;2023-03-12T08:13:37;75.60;;;38.42;;
72413;SDS011;60995;52.154;4.498;2023-03-12T08:15:53;83.45;;;39.45;;
72413;SDS011;60995;52.154;4.498;2023-03-12T08:18:10;96.15;;;38.85;;
72413;SDS011;60995;52.154;4.498;2023-03-12T08:20:26;74.07;;;37.30;;
72413;SDS011;60995;52.154;4.498;2023-03-12T08:22:43;79.40;;;38.25;;
72413;SDS011;60995;52.154;4.498;2023-03-12T08:25:00;80.47;;;39.17;;
72413;SDS011;60995;52.154;4.498;2023-03-12T08:27:16;78.47;;;38.40;;
72413;SDS011;60995;52.154;4.498;2023-03-12T08:29:33;83.35;;;37.92;;
72413;SDS011;60995;52.154;4.498;2023-03-12T08:31:49;75.43;;;36.22;;
72413;SDS011;60995;52.154;4.498;2023-03-12T08:34:05;85.70;;;38.10;;
72413;SDS011;60995;52.154;4.498;2023-03-12T08:36:22;93.05;;;39.53;;
72413;SDS011;60995;52.154;4.498;2023-03-12T08:38:38;197.93;;;45.78;;
72413;SDS011;60995;52.154;4.498;2023-03-12T08:40:56;79.15;;;37.70;;
72413;SDS011;60995;52.154;4.498;2023-03-12T08:43:15;84.18;;;37.45;;
72413;SDS011;60995;52.154;4.498;2023-03-12T08:45:35;80.35;;;37.83;;
72413;SDS011;60995;52.154;4.498;2023-03-12T08:47:52;88.85;;;35.70;;
72413;SDS011;60995;52.154;4.498;2023-03-12T08:50:09;90.00;;;37.00;;
72413;SDS011;60995;52.154;4.498;2023-03-12T08:52:28;86.28;;;34.78;;
72413;SDS011;60995;52.154;4.498;2023-03-12T08:54:44;84.43;;;33.00;;
72413;SDS011;60995;52.154;4.498;2023-03-12T08:57:01;81.22;;;29.55;;
72413;SDS011;60995;52.154;4.498;2023-03-12T08:59:18;75.53;;;26.70;;
72413;SDS011;60995;52.154;4.498;2023-03-12T09:01:35;60.58;;;20.90;;
72413;SDS011;60995;52.154;4.498;2023-03-12T09:03:53;59.78;;;19.10;;
72413;SDS011;60995;52.154;4.498;2023-03-12T09:06:12;63.03;;;16.95;;
72413;SDS011;60995;52.154;4.498;2023-03-12T09:08:31;225.00;;;23.27;;
72413;SDS011;60995;52.154;4.498;2023-03-12T09:10:48;54.92;;;13.57;;
72413;SDS011;60995;52.154;4.498;2023-03-12T09:13:05;44.20;;;11.05;;
72413;SDS011;60995;52.154;4.498;2023-03-12T09:15:22;43.33;;;10.55;;
72413;SDS011;60995;52.154;4.498;2023-03-12T09:17:41;41.15;;;10.52;;
72413;SDS011;60995;52.154;4.498;2023-03-12T09:19:57;43.40;;;10.10;;
72413;SDS011;60995;52.154;4.498;2023-03-12T09:22:14;37.47;;;9.00;;
72413;SDS011;60995;52.154;4.498;2023-03-12T09:24:32;48.80;;;8.55;;
72413;SDS011;60995;52.154;4.498;2023-03-12T09:26:48;40.90;;;9.30;;
72413;SDS011;60995;52.154;4.498;2023-03-12T09:29:05;49.67;;;8.80;;
72413;SDS011;60995;52.154;4.498;2023-03-12T09:31:22;45.85;;;9.18;;
72413;SDS011;60995;52.154;4.498;2023-03-12T09:33:39;50.53;;;8.23;;
72413;SDS011;60995;52.154;4.498;2023-03-12T09:35:56;47.70;;;7.97;;
72413;SDS011;60995;52.154;4.498;2023-03-12T09:38:15;45.70;;;7.80;;
72413;SDS011;60995;52.154;4.498;2023-03-12T09:40:35;34.10;;;7.03;;
72413;SDS011;60995;52.154;4.498;2023-03-12T09:42:57;48.28;;;7.82;;
72413;SDS011;60995;52.154;4.498;2023-03-12T09:45:20;51.78;;;7.72;;
72413;SDS011;60995;52.154;4.498;2023-03-12T09:47:51;48.80;;;7.00;;
72413;SDS011;60995;52.154;4.498;2023-03-12T09:50:16;39.08;;;6.50;;
72413;SDS011;60995;52.154;4.498;2023-03-12T09:52:52;41.47;;;5.93;;
72413;SDS011;60995;52.154;4.498;2023-03-12T09:55:14;36.67;;;6.70;;
72413;SDS011;60995;52.154;4.498;2023-03-12T09:57:34;48.00;;;6.32;;
72413;SDS011;60995;52.154;4.498;2023-03-12T09:59:51;41.30;;;6.20;;
72413;SDS011;60995;52.154;4.498;2023-03-12T10:02:22;35.42;;;5.63;;
72413;SDS011;60995;52.154;4.498;2023-03-12T10:05:05;36.05;;;6.18;;
72413;SDS011;60995;52.154;4.498;2023-03-12T10:07:56;37.03;;;5.93;;
72413;SDS011;60995;52.154;4.498;2023-03-12T10:11:36;41.83;;;6.22;;
72413;SDS011;60995;52.154;4.498;2023-03-12T10:13:50;39.00;;;6.40;;
72413;SDS011;60995;52.154;4.498;2023-03-12T10:18:53;42.00;;;5.95;;
72413;SDS011;60995;52.154;4.498;2023-03-12T10:21:43;34.10;;;5.30;;
72413;SDS011;60995;52.154;4.498;2023-03-12T10:24:43;42.42;;;5.97;;
72413;SDS011;60995;52.154;4.498;2023-03-12T10:27:11;42.05;;;5.90;;
72413;SDS011;60995;52.154;4.498;2023-03-12T10:29:33;39.22;;;6.85;;
72413;SDS011;60995;52.154;4.498;2023-03-12T10:34:30;37.30;;;6.03;;
72413;SDS011;60995;52.154;4.498;2023-03-12T10:37:16;50.28;;;7.97;;
72413;SDS011;60995;52.154;4.498;2023-03-12T10:39:40;51.35;;;6.57;;
72413;SDS011;60995;52.154;4.498;2023-03-12T10:41:56;48.58;;;6.95;;
72413;SDS011;60995;52.154;4.498;2023-03-12T10:44:20;48.47;;;7.28;;
72413;SDS011;60995;52.154;4.498;2023-03-12T10:51:57;45.22;;;6.93;;
72413;SDS011;60995;52.154;4.498;2023-03-12T10:54:37;40.97;;;6.70;;
72413;SDS011;60995;52.154;4.498;2023-03-12T10:56:56;42.53;;;6.47;;
72413;SDS011;60995;52.154;4.498;2023-03-12T10:59:19;49.67;;;6.60;;
72413;SDS011;60995;52.154;4.498;2023-03-12T11:01:37;40.90;;;6.95;;
72413;SDS011;60995;52.154;4.498;2023-03-12T11:04:18;47.63;;;6.20;;
72413;SDS011;60995;52.154;4.498;2023-03-12T11:06:42;40.03;;;5.75;;
72413;SDS011;60995;52.154;4.498;2023-03-12T11:09:17;42.13;;;6.38;;
72413;SDS011;60995;52.154;4.498;2023-03-12T11:11:35;43.38;;;6.10;;
72413;SDS011;60995;52.154;4.498;2023-03-12T11:14:03;45.00;;;7.13;;
72413;SDS011;60995;52.154;4.498;2023-03-12T11:16:30;39.33;;;6.57;;
72413;SDS011;60995;52.154;4.498;2023-03-12T11:21:23;40.47;;;7.47;;
72413;SDS011;60995;52.154;4.498;2023-03-12T11:23:45;42.70;;;6.38;;
72413;SDS011;60995;52.154;4.498;2023-03-12T11:26:24;42.83;;;6.63;;
72413;SDS011;60995;52.154;4.498;2023-03-12T11:28:58;42.22;;;6.20;;
72413;SDS011;60995;52.154;4.498;2023-03-12T11:31:29;50.28;;;6.97;;
72413;SDS011;60995;52.154;4.498;2023-03-12T11:33:52;42.28;;;6.57;;
72413;SDS011;60995;52.154;4.498;2023-03-12T11:48:39;46.08;;;6.50;;
72413;SDS011;60995;52.154;4.498;2023-03-12T11:51:23;41.75;;;6.75;;
72413;SDS011;60995;52.154;4.498;2023-03-12T12:00:17;38.10;;;6.75;;
72413;SDS011;60995;52.154;4.498;2023-03-12T12:08:56;48.35;;;7.38;;
72413;SDS011;60995;52.154;4.498;2023-03-12T12:20:02;43.35;;;6.40;;
72413;SDS011;60995;52.154;4.498;2023-03-12T12:26:07;35.80;;;5.85;;
72413;SDS011;60995;52.154;4.498;2023-03-12T12:28:51;47.58;;;7.43;;
72413;SDS011;60995;52.154;4.498;2023-03-12T12:34:23;56.63;;;6.88;;
72413;SDS011;60995;52.154;4.498;2023-03-12T12:37:10;44.45;;;6.57;;
72413;SDS011;60995;52.154;4.498;2023-03-12T12:40:35;42.47;;;7.65;;
72413;SDS011;60995;52.154;4.498;2023-03-12T12:45:21;38.90;;;6.13;;
72413;SDS011;60995;52.154;4.498;2023-03-12T12:47:46;43.75;;;6.78;;
72413;SDS011;60995;52.154;4.498;2023-03-12T12:50:28;33.72;;;5.50;;
72413;SDS011;60995;52.154;4.498;2023-03-12T12:52:53;36.00;;;6.50;;
72413;SDS011;60995;52.154;4.498;2023-03-12T12:58:20;44.55;;;7.20;;
72413;SDS011;60995;52.154;4.498;2023-03-12T13:01:32;37.47;;;6.50;;
72413;SDS011;60995;52.154;4.498;2023-03-12T13:03:52;34.50;;;5.97;;
72413;SDS011;60995;52.154;4.498;2023-03-12T13:11:58;33.40;;;5.72;;
72413;SDS011;60995;52.154;4.498;2023-03-12T13:15:00;33.35;;;5.38;;
72413;SDS011;60995;52.154;4.498;2023-03-12T13:20:20;32.95;;;5.88;;
72413;SDS011;60995;52.154;4.498;2023-03-12T13:23:10;38.80;;;4.88;;
72413;SDS011;60995;52.154;4.498;2023-03-12T13:26:05;35.78;;;5.90;;
72413;SDS011;60995;52.154;4.498;2023-03-12T13:28:34;33.08;;;5.97;;
72413;SDS011;60995;52.154;4.498;2023-03-12T13:33:46;36.42;;;5.43;;
72413;SDS011;60995;52.154;4.498;2023-03-12T13:39:17;32.90;;;7.18;;
72413;SDS011;60995;52.154;4.498;2023-03-12T13:41:47;33.67;;;6.28;;
72413;SDS011;60995;52.154;4.498;2023-03-12T13:46:39;32.40;;;6.00;;
72413;SDS011;60995;52.154;4.498;2023-03-12T13:49:13;35.65;;;5.55;;
72413;SDS011;60995;52.154;4.498;2023-03-12T13:51:46;42.45;;;5.70;;
72413;SDS011;60995;52.154;4.498;2023-03-12T13:57:44;33.95;;;5.32;;
72413;SDS011;60995;52.154;4.498;2023-03-12T14:00:38;35.03;;;5.57;;
72413;SDS011;60995;52.154;4.498;2023-03-12T14:03:34;27.70;;;5.35;;
72413;SDS011;60995;52.154;4.498;2023-03-12T14:06:24;28.27;;;5.07;;
72413;SDS011;60995;52.154;4.498;2023-03-12T14:09:04;33.70;;;5.20;;
72413;SDS011;60995;52.154;4.498;2023-03-12T14:14:35;32.65;;;6.60;;
72413;SDS011;60995;52.154;4.498;2023-03-12T14:17:19;34.92;;;6.22;;
72413;SDS011;60995;52.154;4.498;2023-03-12T14:19:47;36.45;;;6.35;;
72413;SDS011;60995;52.154;4.498;2023-03-12T14:22:25;38.38;;;6.20;;
72413;SDS011;60995;52.154;4.498;2023-03-12T14:24:53;33.83;;;5.97;;
72413;SDS011;60995;52.154;4.498;2023-03-12T14:27:15;36.05;;;5.97;;
72413;SDS011;60995;52.154;4.498;2023-03-12T14:29:44;39.13;;;6.25;;
72413;SDS011;60995;52.154;4.498;2023-03-12T14:32:20;32.60;;;5.80;;
72413;SDS011;60995;52.154;4.498;2023-03-12T14:37:39;45.60;;;6.38;;
72413;SDS011;60995;52.154;4.498;2023-03-12T14:40:24;38.83;;;5.95;;
72413;SDS011;60995;52.154;4.498;2023-03-12T14:42:53;42.10;;;6.50;;
72413;SDS011;60995;52.154;4.498;2023-03-12T14:45:21;42.25;;;6.35;;
72413;SDS011;60995;52.154;4.498;2023-03-12T14:47:42;37.38;;;5.97;;
72413;SDS011;60995;52.154;4.498;2023-03-12T14:50:15;45.63;;;6.85;;
72413;SDS011;60995;52.154;4.498;2023-03-12T14:52:47;39.60;;;6.70;;
72413;SDS011;60995;52.154;4.498;2023-03-12T14:55:13;40.03;;;6.22;;
72413;SDS011;60995;52.154;4.498;2023-03-12T14:57:37;40.90;;;6.32;;
72413;SDS011;60995;52.154;4.498;2023-03-12T14:59:55;40.17;;;5.95;;
72413;SDS011;60995;52.154;4.498;2023-03-12T15:02:20;31.63;;;5.90;;
72413;SDS011;60995;52.154;4.498;2023-03-12T15:04:40;44.92;;;6.15;;
72413;SDS011;60995;52.154;4.498;2023-03-12T15:07:01;35.83;;;6.18;;
72413;SDS011;60995;52.154;4.498;2023-03-12T15:09:22;39.72;;;6.15;;
72413;SDS011;60995;52.154;4.498;2023-03-12T15:14:38;35.97;;;6.57;;
72413;SDS011;60995;52.154;4.498;2023-03-12T15:16:59;39.15;;;5.75;;
72413;SDS011;60995;52.154;4.498;2023-03-12T15:19:39;36.58;;;5.95;;
72413;SDS011;60995;52.154;4.498;2023-03-12T15:21:58;39.25;;;6.10;;
72413;SDS011;60995;52.154;4.498;2023-03-12T15:24:19;39.80;;;6.97;;
72413;SDS011;60995;52.154;4.498;2023-03-12T15:26:39;43.42;;;6.10;;
72413;SDS011;60995;52.154;4.498;2023-03-12T15:29:00;44.42;;;6.35;;